createdAt,value
2022-09-21T00:00:49.793Z,96933.69
2022-09-21T00:03:18.987Z,96934.00
2022-09-21T00:05:46.794Z,96935.69
2022-09-21T00:08:15.369Z,96935.78
2022-09-21T00:10:43.079Z,96930.50
2022-09-21T00:13:13.370Z,96936.00
2022-09-21T00:15:41.844Z,96931.28
2022-09-21T00:18:11.266Z,96942.88
2022-09-21T00:20:43.464Z,96939.16
2022-09-21T00:23:11.404Z,96943.00
2022-09-21T00:25:39.255Z,96945.22
2022-09-21T00:28:06.988Z,96944.66
2022-09-21T00:30:34.745Z,96947.06
2022-09-21T00:33:02.417Z,96942.75
2022-09-21T00:35:30.123Z,96936.31
2022-09-21T00:38:03.214Z,96940.88
2022-09-21T00:40:31.283Z,96940.09
2022-09-21T00:43:13.517Z,96939.56
2022-09-21T00:45:42.087Z,96934.75
2022-09-21T00:48:10.640Z,96940.94
2022-09-21T00:50:43.692Z,96942.03
2022-09-21T00:53:13.097Z,96936.66
2022-09-21T00:55:44.263Z,96936.38
2022-09-21T00:58:18.041Z,96941.22
2022-09-21T01:00:46.053Z,96941.50
2022-09-21T01:03:14.220Z,96943.41
2022-09-21T01:05:41.940Z,96944.25
2022-09-21T01:08:13.067Z,96940.50
2022-09-21T01:10:57.860Z,96940.78
2022-09-21T01:13:35.861Z,96938.34
2022-09-21T01:16:12.391Z,96938.63
2022-09-21T01:18:46.728Z,96942.72
2022-09-21T01:21:20.089Z,96944.06
2022-09-21T01:24:37.729Z,96941.34
2022-09-21T01:27:57.064Z,96934.06
2022-09-21T01:30:26.676Z,96933.78
2022-09-21T01:33:00.337Z,96937.81
2022-09-21T01:35:31.624Z,96934.06
2022-09-21T01:38:03.222Z,96945.34
2022-09-21T01:40:35.995Z,96938.91
2022-09-21T01:43:07.316Z,96939.22
2022-09-21T01:45:41.258Z,96943.78
2022-09-21T01:48:11.172Z,96934.06
2022-09-21T01:50:43.359Z,96943.22
2022-09-21T01:53:18.697Z,96944.84
2022-09-21T01:55:52.503Z,96936.50
2022-09-21T01:58:25.612Z,96943.22
2022-09-21T02:00:59.168Z,96939.75
2022-09-21T02:03:32.039Z,96944.06
2022-09-21T02:06:01.902Z,96935.97
2022-09-21T02:08:32.249Z,96940.31
2022-09-21T02:11:02.552Z,96941.41
2022-09-21T02:13:33.652Z,96942.75
2022-09-21T02:16:22.112Z,96942.47
2022-09-21T02:18:59.923Z,96951.38
2022-09-21T02:21:34.178Z,96945.22
2022-09-21T02:24:10.779Z,96947.13
2022-09-21T02:26:46.380Z,96940.44
2022-09-21T02:29:19.515Z,96943.38
2022-09-21T02:31:54.661Z,96945.53
2022-09-21T02:34:29.540Z,96938.84
2022-09-21T02:37:02.044Z,96943.41
2022-09-21T02:39:35.472Z,96952.00
2022-09-21T02:42:10.030Z,96939.41
2022-09-21T02:44:41.510Z,96953.13
2022-09-21T02:47:18.485Z,96946.63
2022-09-21T02:49:54.595Z,96941.84
2022-09-21T02:52:23.439Z,96952.34
2022-09-21T02:54:54.571Z,96949.09
2022-09-21T02:57:24.539Z,96948.03
2022-09-21T02:59:53.316Z,96949.34
2022-09-21T03:02:22.422Z,96946.13
2022-09-21T03:04:50.590Z,96946.94
2022-09-21T03:07:18.904Z,96939.41
2022-09-21T03:09:46.727Z,96939.16
2022-09-21T03:12:14.490Z,96946.94
2022-09-21T03:14:42.530Z,96942.38
2022-09-21T03:17:10.232Z,96946.94
2022-09-21T03:19:39.345Z,96937.78
2022-09-21T03:22:07.023Z,96935.91
2022-09-21T03:24:46.619Z,96941.56
2022-09-21T03:27:14.827Z,96948.81
2022-09-21T03:29:42.607Z,96949.63
2022-09-21T03:32:10.606Z,96950.44
2022-09-21T03:34:39.702Z,96957.69
2022-09-21T03:37:10.077Z,96951.53
2022-09-21T03:39:37.845Z,96958.25
2022-09-21T03:42:05.911Z,96961.19
2022-09-21T03:44:33.698Z,96963.34
2022-09-21T03:47:01.436Z,96960.06
2022-09-21T03:49:29.186Z,96961.13
2022-09-21T03:51:59.512Z,96957.91
2022-09-21T03:54:27.254Z,96958.72
2022-09-21T03:56:55.060Z,96954.19
2022-09-21T03:59:22.767Z,96954.44
2022-09-21T04:01:50.574Z,96954.47
2022-09-21T04:04:18.311Z,96954.72
2022-09-21T04:06:46.180Z,96960.66
2022-09-21T04:09:15.277Z,96963.06
2022-09-21T04:11:43.045Z,96968.44
2022-09-21T04:14:12.392Z,96963.34
2022-09-21T04:16:40.221Z,96969.75
2022-09-21T04:19:07.982Z,96969.75
2022-09-21T04:21:35.859Z,96962.50
2022-09-21T04:24:04.123Z,96961.69
2022-09-21T04:26:35.932Z,96971.91
2022-09-21T04:29:04.123Z,96969.22
2022-09-21T04:31:31.927Z,96968.16
2022-09-21T04:34:00.005Z,96968.72
2022-09-21T04:36:34.374Z,96979.97
2022-09-21T04:39:04.904Z,96973.25
2022-09-21T04:41:34.184Z,96979.94
2022-09-21T04:44:02.271Z,96979.13
2022-09-21T04:46:30.079Z,96979.16
2022-09-21T04:48:57.988Z,96982.13
2022-09-21T04:51:25.718Z,96981.06
2022-09-21T04:53:53.503Z,96981.06
2022-09-21T04:56:21.235Z,96982.38
2022-09-21T04:58:50.349Z,96985.34
2022-09-21T05:01:18.563Z,96989.63
2022-09-21T05:03:46.367Z,96995.28
2022-09-21T05:06:14.991Z,96990.47
2022-09-21T05:09:00.161Z,96992.34
2022-09-21T05:11:28.034Z,96991.28
2022-09-21T05:13:57.148Z,96995.28
2022-09-21T05:16:24.904Z,96987.22
2022-09-21T05:18:55.188Z,97001.97
2022-09-21T05:21:23.139Z,97003.06
2022-09-21T05:23:50.963Z,97004.41
2022-09-21T05:26:18.943Z,97003.84
2022-09-21T05:28:47.552Z,97007.91
2022-09-21T05:31:31.926Z,97011.91
2022-09-21T05:34:07.028Z,97012.75
2022-09-21T05:36:46.258Z,97015.97
2022-09-21T05:39:14.518Z,97014.88
2022-09-21T05:41:42.966Z,97020.00
2022-09-21T05:44:13.530Z,97016.75
2022-09-21T05:46:52.714Z,97019.72
2022-09-21T05:49:27.960Z,97021.84
2022-09-21T05:52:03.422Z,97022.94
2022-09-21T05:54:42.014Z,97018.13
2022-09-21T05:57:16.907Z,97020.81
2022-09-21T05:59:59.238Z,97020.81
2022-09-21T06:02:51.524Z,97021.91
2022-09-21T06:05:20.195Z,97018.66
2022-09-21T06:07:47.911Z,97021.63
2022-09-21T06:10:16.733Z,97019.75
2022-09-21T06:12:44.797Z,97023.50
2022-09-21T06:15:14.794Z,97018.13
2022-09-21T06:17:44.320Z,97021.63
2022-09-21T06:20:12.096Z,97021.91
2022-09-21T06:22:39.840Z,97016.00
2022-09-21T06:25:08.788Z,97015.44
2022-09-21T06:27:36.612Z,97027.28
2022-09-21T06:30:04.784Z,97027.28
2022-09-21T06:32:32.645Z,97028.09
2022-09-21T06:35:01.793Z,97019.47
2022-09-21T06:37:29.562Z,97016.78
2022-09-21T06:39:57.336Z,97020.28
2022-09-21T06:42:25.097Z,97024.56
2022-09-21T06:44:52.990Z,97022.41
2022-09-21T06:47:20.742Z,97021.59
2022-09-21T06:49:48.711Z,97024.28
2022-09-21T06:52:17.939Z,97023.19
2022-09-21T06:54:45.769Z,97024.25
2022-09-21T06:57:13.685Z,97024.50
2022-09-21T06:59:41.519Z,97019.94
2022-09-21T07:02:11.586Z,97028.50
2022-09-21T07:04:39.388Z,97033.59
2022-09-21T07:07:07.427Z,97025.53
2022-09-21T07:12:26.184Z,97035.91
2022-09-21T07:14:54.001Z,97029.94
2022-09-21T07:17:21.824Z,97037.19
2022-09-21T07:19:49.897Z,97025.00
2022-09-21T07:22:17.728Z,97023.63
2022-09-21T07:24:46.998Z,97022.47
2022-09-21T07:27:14.812Z,97024.56
2022-09-21T07:29:42.798Z,97034.50
2022-09-21T07:32:10.884Z,97037.66
2022-09-21T07:34:38.710Z,97031.94
2022-09-21T07:37:06.610Z,97031.06
2022-09-21T07:39:35.529Z,97034.47
2022-09-21T07:42:04.853Z,97037.91
2022-09-21T07:44:33.077Z,97036.13
2022-09-21T07:47:01.270Z,97039.84
2022-09-21T07:49:29.108Z,97035.63
2022-09-21T07:52:01.450Z,97033.66
2022-09-21T07:54:31.871Z,97032.75
2022-09-21T07:57:16.959Z,97036.63
2022-09-21T07:59:46.499Z,97036.41
2022-09-21T08:02:14.384Z,97045.09
2022-09-21T08:04:42.258Z,97042.22
2022-09-21T08:07:10.036Z,97041.78
2022-09-21T08:09:37.781Z,97050.50
2022-09-21T08:12:05.620Z,97053.06
2022-09-21T08:14:33.832Z,97045.28
2022-09-21T08:17:04.047Z,97045.06
2022-09-21T08:19:31.859Z,97056.81
2022-09-21T08:21:59.695Z,97052.53
2022-09-21T08:24:27.559Z,97051.69
2022-09-21T08:26:56.038Z,97049.53
2022-09-21T08:29:24.915Z,97054.13
2022-09-21T08:31:53.367Z,97058.97
2022-09-21T08:34:23.999Z,97058.19
2022-09-21T08:36:55.263Z,97058.09
2022-09-21T08:39:23.883Z,97054.59
2022-09-21T08:42:11.660Z,97051.53
2022-09-21T08:44:44.113Z,97065.38
2022-09-21T08:47:16.950Z,97061.75
2022-09-21T08:49:52.777Z,97060.41
2022-09-21T08:52:25.035Z,97072.75
2022-09-21T08:54:57.055Z,97058.38
2022-09-21T08:57:29.903Z,97064.19
2022-09-21T08:59:58.147Z,97066.97
2022-09-21T09:02:46.179Z,97067.88
2022-09-21T09:05:38.525Z,97059.47
2022-09-21T09:08:29.614Z,97061.28
2022-09-21T09:11:07.871Z,97061.84
2022-09-21T09:14:09.773Z,97056.38
2022-09-21T09:16:48.788Z,97065.56
2022-09-21T09:19:23.309Z,97059.19
2022-09-21T09:21:53.233Z,97058.88
2022-09-21T09:24:34.196Z,97059.53
2022-09-21T09:27:07.413Z,97058.34
2022-09-21T09:29:45.391Z,97056.19
2022-09-21T09:32:16.103Z,97053.38
2022-09-21T09:34:51.564Z,97039.94
2022-09-21T09:37:26.505Z,97042.50
2022-09-21T09:39:57.839Z,97033.94
2022-09-21T09:42:41.247Z,97042.78
2022-09-21T09:45:26.360Z,97035.03
2022-09-21T09:48:07.880Z,97032.47
2022-09-21T09:50:38.764Z,97035.31
2022-09-21T09:53:12.440Z,97032.66
2022-09-21T09:55:43.690Z,97027.72
2022-09-21T09:58:20.392Z,97026.81
2022-09-21T10:00:52.182Z,97021.69
2022-09-21T10:03:23.096Z,97032.13
2022-09-21T10:05:51.494Z,97026.63
2022-09-21T10:08:43.008Z,97019.41
2022-09-21T10:11:12.361Z,97026.44
2022-09-21T10:13:42.550Z,97018.84
2022-09-21T10:16:15.023Z,97025.63
2022-09-21T10:18:48.662Z,97025.03
2022-09-21T10:21:22.401Z,97024.91
2022-09-21T10:23:55.164Z,97028.19
2022-09-21T10:26:23.614Z,97020.13
2022-09-21T10:28:57.690Z,97011.28
2022-09-21T10:31:27.110Z,97014.66
2022-09-21T10:34:06.563Z,97011.22
2022-09-21T10:36:36.719Z,97018.44
2022-09-21T10:39:18.724Z,97009.59
2022-09-21T10:41:52.489Z,97000.59
2022-09-21T10:44:22.488Z,97004.38
2022-09-21T10:46:51.798Z,96999.47
2022-09-21T10:49:23.333Z,96990.69
2022-09-21T10:51:54.361Z,96990.25
2022-09-21T10:54:27.595Z,96985.31
2022-09-21T10:56:58.841Z,96983.31
2022-09-21T10:59:29.492Z,96989.78
2022-09-21T11:01:58.895Z,96980.72
2022-09-21T11:04:38.790Z,96984.56
2022-09-21T11:07:13.322Z,96972.69
2022-09-21T11:09:48.436Z,96978.69
2022-09-21T11:12:32.366Z,96976.38
2022-09-21T11:15:10.062Z,96969.88
2022-09-21T11:17:42.996Z,96967.31
2022-09-21T11:20:27.754Z,96975.53
2022-09-21T11:23:04.534Z,96971.78
2022-09-21T11:25:40.276Z,96967.41
2022-09-21T11:28:22.809Z,96971.00
2022-09-21T11:31:06.796Z,96960.38
2022-09-21T11:33:46.830Z,96963.59
2022-09-21T11:36:23.515Z,96965.97
2022-09-21T11:39:00.908Z,96960.81
2022-09-21T11:41:49.921Z,96961.06
2022-09-21T11:44:38.231Z,96959.03
2022-09-21T11:47:17.158Z,96956.16
2022-09-21T11:50:31.478Z,96943.91
2022-09-21T11:53:14.405Z,96950.94
2022-09-21T11:55:55.225Z,96952.78
2022-09-21T11:58:33.319Z,96950.34
2022-09-21T12:01:12.088Z,96936.16
2022-09-21T12:03:57.026Z,96940.50
2022-09-21T12:06:43.761Z,96939.56
2022-09-21T12:09:37.929Z,96945.38
2022-09-21T12:12:11.450Z,96940.03
2022-09-21T12:14:50.239Z,96940.44
2022-09-21T12:17:45.634Z,96939.31
2022-09-21T12:20:21.815Z,96945.28
2022-09-21T12:22:56.588Z,96935.91
2022-09-21T12:25:27.135Z,96933.03
2022-09-21T12:28:02.110Z,96925.97
2022-09-21T12:30:33.251Z,96933.63
2022-09-21T12:33:05.687Z,96929.50
2022-09-21T12:35:39.209Z,96927.97
2022-09-21T12:38:16.510Z,96926.03
2022-09-21T12:41:02.602Z,96930.50
2022-09-21T12:43:37.864Z,96932.00
2022-09-21T12:46:13.052Z,96927.22
2022-09-21T12:48:42.327Z,96922.53
2022-09-21T12:51:15.548Z,96919.63
2022-09-21T12:53:50.793Z,96915.50
2022-09-21T12:56:30.562Z,96916.59
2022-09-21T12:59:11.410Z,96911.75
2022-09-21T13:01:52.356Z,96912.09
2022-09-21T13:04:41.844Z,96917.50
2022-09-21T13:07:30.162Z,96912.16
2022-09-21T13:09:58.812Z,96915.97
2022-09-21T13:12:30.530Z,96910.44
2022-09-21T13:15:04.085Z,96905.75
2022-09-21T13:17:34.507Z,96897.97
2022-09-21T13:20:06.531Z,96905.22
2022-09-21T13:22:37.373Z,96897.50
2022-09-21T13:25:09.331Z,96897.63
2022-09-21T13:28:04.357Z,96899.44
2022-09-21T13:30:38.676Z,96897.63
2022-09-21T13:33:32.777Z,96898.22
2022-09-21T13:36:30.112Z,96893.28
2022-09-21T13:39:06.092Z,96896.31
2022-09-21T13:41:59.009Z,96892.06
2022-09-21T13:44:41.810Z,96891.16
2022-09-21T13:47:11.445Z,96890.59
2022-09-21T13:49:59.712Z,96892.47
2022-09-21T13:52:35.312Z,96889.03
2022-09-21T13:55:06.034Z,96890.28
2022-09-21T13:57:39.063Z,96895.31
2022-09-21T14:00:27.779Z,96897.16
2022-09-21T14:03:00.524Z,96888.78
2022-09-21T14:05:35.420Z,96887.44
2022-09-21T14:08:06.355Z,96886.69
2022-09-21T14:10:37.279Z,96884.94
2022-09-21T14:13:24.476Z,96883.44
2022-09-21T14:15:52.530Z,96883.94
2022-09-21T14:18:37.668Z,96885.81
2022-09-21T14:21:18.547Z,96881.06
2022-09-21T14:24:21.799Z,96882.94
2022-09-21T14:27:00.808Z,96877.78
2022-09-21T14:29:36.268Z,96884.59
2022-09-21T14:32:06.385Z,96870.28
2022-09-21T14:34:37.894Z,96866.88
2022-09-21T14:37:15.753Z,96873.13
2022-09-21T14:39:46.269Z,96870.13
2022-09-21T14:42:18.096Z,96871.22
2022-09-21T14:44:47.737Z,96875.41
2022-09-21T14:47:48.833Z,96873.94
2022-09-21T14:50:29.034Z,96866.38
2022-09-21T14:53:19.529Z,96862.47
2022-09-21T14:56:03.486Z,96869.88
2022-09-21T14:58:45.034Z,96867.75
2022-09-21T15:01:23.000Z,96861.75
2022-09-21T15:04:16.638Z,96856.09
2022-09-21T15:07:09.398Z,96850.16
2022-09-21T15:10:13.282Z,96850.81
2022-09-21T15:12:47.538Z,96853.00
2022-09-21T15:15:30.905Z,96856.09
2022-09-21T15:18:01.847Z,96850.22
2022-09-21T15:20:32.064Z,96841.84
2022-09-21T15:23:02.076Z,96848.16
2022-09-21T15:25:34.174Z,96845.91
2022-09-21T15:28:04.129Z,96840.47
2022-09-21T15:30:44.032Z,96837.06
2022-09-21T15:33:13.969Z,96836.63
2022-09-21T15:35:47.676Z,96849.53
2022-09-21T15:38:28.397Z,96839.78
2022-09-21T15:41:02.754Z,96838.97
2022-09-21T15:43:34.341Z,96838.66
2022-09-21T15:46:04.136Z,96826.22
2022-09-21T15:48:34.503Z,96820.31
2022-09-21T15:51:07.568Z,96826.69
2022-09-21T15:53:42.341Z,96826.91
2022-09-21T15:56:19.345Z,96827.09
2022-09-21T15:58:49.915Z,96823.41
2022-09-21T16:01:21.402Z,96836.69
2022-09-21T16:03:55.133Z,96832.00
2022-09-21T16:06:27.145Z,96832.47
2022-09-21T16:08:55.751Z,96830.53
2022-09-21T16:11:37.694Z,96831.59
2022-09-21T16:14:29.439Z,96839.38
2022-09-21T16:17:22.726Z,96828.91
2022-09-21T16:20:23.002Z,96841.47
2022-09-21T16:22:55.377Z,96845.03
2022-09-21T16:25:32.508Z,96840.75
2022-09-21T16:28:03.540Z,96838.91
2022-09-21T16:30:57.298Z,96849.97
2022-09-21T16:33:40.975Z,96849.38
2022-09-21T16:36:37.863Z,96849.88
2022-09-21T16:39:09.424Z,96848.63
2022-09-21T16:41:41.357Z,96849.34
2022-09-21T16:44:20.652Z,96844.91
2022-09-21T16:46:53.778Z,96849.56
2022-09-21T16:49:25.789Z,96853.91
2022-09-21T16:51:55.859Z,96852.00
2022-09-21T16:54:25.165Z,96850.09
2022-09-21T16:56:55.108Z,96851.22
2022-09-21T16:59:25.114Z,96845.00
2022-09-21T17:01:56.487Z,96845.66
2022-09-21T17:04:26.105Z,96846.47
2022-09-21T17:06:55.321Z,96842.00
2022-09-21T17:09:29.438Z,96849.19
2022-09-21T17:11:59.308Z,96844.06
2022-09-21T17:14:29.490Z,96852.53
2022-09-21T17:17:00.046Z,96844.84
2022-09-21T17:19:27.897Z,96833.97
2022-09-21T17:21:55.681Z,96848.19
2022-09-21T17:24:48.731Z,96834.91
2022-09-21T17:27:12.238Z,96847.69
2022-09-21T17:29:47.804Z,96846.53
2022-09-21T17:32:16.800Z,96842.34
2022-09-21T17:34:44.822Z,96847.63
2022-09-21T17:37:12.994Z,96845.06
2022-09-21T17:39:42.481Z,96845.81
2022-09-21T17:42:18.919Z,96845.00
2022-09-21T17:45:06.787Z,96845.75
2022-09-21T17:47:35.034Z,96845.91
2022-09-21T17:50:19.496Z,96843.31
2022-09-21T17:53:05.503Z,96848.09
2022-09-21T17:55:33.719Z,96854.47
2022-09-21T17:58:14.309Z,96864.50
2022-09-21T18:00:53.272Z,96857.13
2022-09-21T18:03:23.516Z,96861.75
2022-09-21T18:05:55.776Z,96862.81
2022-09-21T18:08:26.368Z,96863.06
2022-09-21T18:11:03.881Z,96865.91
2022-09-21T18:13:41.270Z,96867.34
2022-09-21T18:16:28.050Z,96856.91
2022-09-21T18:19:24.243Z,96863.38
2022-09-21T18:21:58.079Z,96866.03
2022-09-21T18:24:31.141Z,96868.06
2022-09-21T18:27:00.011Z,96866.16
2022-09-21T18:29:40.855Z,96870.09
2022-09-21T18:32:32.216Z,96874.13
2022-09-21T18:35:19.259Z,96873.53
2022-09-21T18:37:59.999Z,96871.25
2022-09-21T18:40:34.367Z,96874.47
2022-09-21T18:43:16.498Z,96874.47
2022-09-21T18:45:49.031Z,96880.81
2022-09-21T18:48:36.108Z,96878.00
2022-09-21T18:51:15.093Z,96881.81
2022-09-21T18:53:46.866Z,96883.22
2022-09-21T18:56:15.549Z,96890.34
2022-09-21T18:58:44.085Z,96883.13
2022-09-21T19:01:13.614Z,96875.00
2022-09-21T19:03:43.967Z,96885.44
2022-09-21T19:06:25.390Z,96887.66
2022-09-21T19:09:03.608Z,96879.66
2022-09-21T19:11:40.185Z,96887.56
2022-09-21T19:14:18.509Z,96888.25
2022-09-21T19:16:57.657Z,96890.06
2022-09-21T19:19:35.355Z,96892.38
2022-09-21T19:22:13.238Z,96892.78
2022-09-21T19:24:54.158Z,96893.06
2022-09-21T19:27:37.712Z,96893.66
2022-09-21T19:30:08.720Z,96886.97
2022-09-21T19:32:40.849Z,96879.75
2022-09-21T19:35:23.029Z,96890.44
2022-09-21T19:37:52.902Z,96898.06
2022-09-21T19:40:33.396Z,96894.84
2022-09-21T19:43:20.618Z,96890.53
2022-09-21T19:46:04.398Z,96893.94
2022-09-21T19:48:41.939Z,96891.22
2022-09-21T19:51:19.295Z,96891.81
2022-09-21T19:54:08.946Z,96895.22
2022-09-21T19:56:58.199Z,96893.41
2022-09-21T19:59:44.623Z,96885.97
2022-09-21T20:02:15.219Z,96888.66
2022-09-21T20:04:50.039Z,96890.41
2022-09-21T20:07:26.875Z,96893.13
2022-09-21T20:10:26.654Z,96890.06
2022-09-21T20:13:04.836Z,96893.06
2022-09-21T20:15:39.350Z,96893.44
2022-09-21T20:18:15.717Z,96887.25
2022-09-21T20:20:43.593Z,96894.53
2022-09-21T20:23:14.120Z,96893.81
2022-09-21T20:25:50.528Z,96886.34
2022-09-21T20:28:19.329Z,96887.63
2022-09-21T20:30:47.209Z,96882.94
2022-09-21T20:33:17.024Z,96892.38
2022-09-21T20:35:45.521Z,96894.91
2022-09-21T20:38:15.388Z,96899.00
2022-09-21T20:40:44.345Z,96899.28
2022-09-21T20:43:14.101Z,96893.50
2022-09-21T20:45:46.272Z,96896.00
2022-09-21T20:48:14.498Z,96898.59
2022-09-21T20:50:42.924Z,96898.13
2022-09-21T20:53:10.823Z,96892.75
2022-09-21T20:55:41.075Z,96905.78
2022-09-21T20:58:11.824Z,96899.97
2022-09-21T21:00:39.844Z,96909.13
2022-09-21T21:03:07.981Z,96904.75
2022-09-21T21:05:35.760Z,96907.22
2022-09-21T21:08:04.657Z,96906.81
2022-09-21T21:10:32.551Z,96912.50
2022-09-21T21:13:02.571Z,96914.94
2022-09-21T21:15:31.299Z,96910.84
2022-09-21T21:17:59.081Z,96901.47
2022-09-21T21:20:27.033Z,96902.38
2022-09-21T21:22:54.826Z,96906.72
2022-09-21T21:25:22.607Z,96901.44
2022-09-21T21:27:50.430Z,96908.03
2022-09-21T21:30:19.830Z,96905.94
2022-09-21T21:32:52.139Z,96907.91
2022-09-21T21:35:20.189Z,96911.44
2022-09-21T21:37:48.033Z,96910.09
2022-09-21T21:40:16.213Z,96908.78
2022-09-21T21:42:44.089Z,96916.38
2022-09-21T21:45:12.078Z,96912.13
2022-09-21T21:47:41.650Z,96919.25
2022-09-21T21:50:11.218Z,96912.81
2022-09-21T21:52:39.443Z,96911.72
2022-09-21T21:55:08.063Z,96918.09
2022-09-21T21:57:35.933Z,96915.16
2022-09-21T22:00:05.139Z,96912.22
2022-09-21T22:02:33.027Z,96909.31
2022-09-21T22:05:02.146Z,96903.63
2022-09-21T22:07:29.984Z,96900.13
2022-09-21T22:09:57.742Z,96899.28
2022-09-21T22:12:26.119Z,96897.63
2022-09-21T22:14:55.988Z,96904.34
2022-09-21T22:17:24.336Z,96896.84
2022-09-21T22:19:54.043Z,96901.69
2022-09-21T22:22:23.143Z,96903.09
2022-09-21T22:24:50.923Z,96896.31
2022-09-21T22:27:18.745Z,96885.84
2022-09-21T22:29:46.494Z,96893.63
2022-09-21T22:32:14.288Z,96890.41
2022-09-21T22:34:42.017Z,96883.44
2022-09-21T22:37:09.815Z,96882.38
2022-09-21T22:39:39.082Z,96882.25
2022-09-21T22:42:07.140Z,96883.34
2022-09-21T22:44:35.272Z,96882.59
2022-09-21T22:47:03.116Z,96876.72
2022-09-21T22:49:30.974Z,96872.69
2022-09-21T22:51:58.720Z,96869.22
2022-09-21T22:54:27.670Z,96877.09
2022-09-21T22:56:57.000Z,96884.13
2022-09-21T22:59:25.535Z,96884.66
2022-09-21T23:01:53.253Z,96886.59
2022-09-21T23:04:21.262Z,96886.38
2022-09-21T23:06:50.185Z,96885.06
2022-09-21T23:09:20.839Z,96880.72
2022-09-21T23:11:53.203Z,96878.03
2022-09-21T23:14:23.389Z,96879.16
2022-09-21T23:16:51.405Z,96881.59
2022-09-21T23:19:19.247Z,96880.53
2022-09-21T23:21:49.476Z,96878.88
2022-09-21T23:24:17.950Z,96882.69
2022-09-21T23:26:46.653Z,96870.81
2022-09-21T23:29:16.223Z,96862.19
2022-09-21T23:31:46.424Z,96869.97
2022-09-21T23:34:16.530Z,96864.84
2022-09-21T23:36:45.751Z,96863.25
2022-09-21T23:39:15.484Z,96865.94
2022-09-21T23:41:43.787Z,96867.53
2022-09-21T23:44:11.578Z,96871.84
2022-09-21T23:46:42.045Z,96864.34
2022-09-21T23:49:11.339Z,96869.72
2022-09-21T23:51:39.768Z,96874.56
2022-09-21T23:54:07.720Z,96865.97
2022-09-21T23:56:35.518Z,96875.66
2022-09-21T23:59:05.959Z,96864.59
